sensor_id;sensor_type;location;lat;lon;timestamp;P1;durP1;ratioP1;P2;durP2;ratioP2
17790;SDS011;9019;48.132;-1.210;2024-01-30T00:02:15;20.33;;;12.90;;
17790;SDS011;9019;48.132;-1.210;2024-01-30T00:04:42;20.60;;;12.70;;
17790;SDS011;9019;48.132;-1.210;2024-01-30T00:07:10;21.67;;;13.03;;
17790;SDS011;9019;48.132;-1.210;2024-01-30T00:09:37;19.30;;;12.77;;
17790;SDS011;9019;48.132;-1.210;2024-01-30T00:12:06;20.20;;;13.17;;
17790;SDS011;9019;48.132;-1.210;2024-01-30T00:14:34;21.13;;;13.00;;
17790;SDS011;9019;48.132;-1.210;2024-01-30T00:17:01;23.53;;;12.87;;
17790;SDS011;9019;48.132;-1.210;2024-01-30T00:19:28;20.13;;;12.80;;
17790;SDS011;9019;48.132;-1.210;2024-01-30T00:21:55;20.07;;;12.57;;
17790;SDS011;9019;48.132;-1.210;2024-01-30T00:24:22;18.97;;;12.80;;
17790;SDS011;9019;48.132;-1.210;2024-01-30T00:26:49;20.53;;;13.27;;
17790;SDS011;9019;48.132;-1.210;2024-01-30T00:29:18;18.50;;;13.07;;
17790;SDS011;9019;48.132;-1.210;2024-01-30T00:31:47;19.97;;;13.00;;
17790;SDS011;9019;48.132;-1.210;2024-01-30T00:34:15;20.60;;;12.83;;
17790;SDS011;9019;48.132;-1.210;2024-01-30T00:36:42;22.07;;;13.17;;
17790;SDS011;9019;48.132;-1.210;2024-01-30T00:39:09;21.03;;;13.37;;
17790;SDS011;9019;48.132;-1.210;2024-01-30T00:41:36;22.83;;;13.50;;
17790;SDS011;9019;48.132;-1.210;2024-01-30T00:44:04;19.00;;;13.07;;
17790;SDS011;9019;48.132;-1.210;2024-01-30T00:46:32;19.10;;;12.70;;
17790;SDS011;9019;48.132;-1.210;2024-01-30T00:49:00;22.47;;;12.57;;
17790;SDS011;9019;48.132;-1.210;2024-01-30T00:51:27;19.67;;;12.57;;
17790;SDS011;9019;48.132;-1.210;2024-01-30T00:53:55;21.77;;;13.80;;
17790;SDS011;9019;48.132;-1.210;2024-01-30T00:56:22;22.47;;;12.97;;
17790;SDS011;9019;48.132;-1.210;2024-01-30T00:58:49;19.30;;;12.90;;
17790;SDS011;9019;48.132;-1.210;2024-01-30T01:01:16;19.63;;;12.63;;
17790;SDS011;9019;48.132;-1.210;2024-01-30T01:03:45;22.57;;;12.20;;
17790;SDS011;9019;48.132;-1.210;2024-01-30T01:06:13;19.00;;;12.83;;
17790;SDS011;9019;48.132;-1.210;2024-01-30T01:08:40;21.40;;;13.40;;
17790;SDS011;9019;48.132;-1.210;2024-01-30T01:11:07;21.63;;;12.67;;
17790;SDS011;9019;48.132;-1.210;2024-01-30T01:13:34;20.27;;;12.83;;
17790;SDS011;9019;48.132;-1.210;2024-01-30T01:16:02;20.57;;;12.47;;
17790;SDS011;9019;48.132;-1.210;2024-01-30T01:18:30;19.97;;;12.43;;
17790;SDS011;9019;48.132;-1.210;2024-01-30T01:20:59;22.03;;;11.90;;
17790;SDS011;9019;48.132;-1.210;2024-01-30T01:23:26;27.53;;;12.67;;
17790;SDS011;9019;48.132;-1.210;2024-01-30T01:25:53;21.03;;;12.27;;
17790;SDS011;9019;48.132;-1.210;2024-01-30T01:28:20;19.90;;;12.80;;
17790;SDS011;9019;48.132;-1.210;2024-01-30T01:30:48;23.53;;;12.50;;
17790;SDS011;9019;48.132;-1.210;2024-01-30T01:33:15;21.83;;;12.37;;
17790;SDS011;9019;48.132;-1.210;2024-01-30T01:35:42;22.53;;;12.33;;
17790;SDS011;9019;48.132;-1.210;2024-01-30T01:38:11;24.07;;;12.63;;
17790;SDS011;9019;48.132;-1.210;2024-01-30T01:40:38;22.90;;;12.63;;
17790;SDS011;9019;48.132;-1.210;2024-01-30T01:43:06;20.93;;;12.40;;
17790;SDS011;9019;48.132;-1.210;2024-01-30T01:45:33;27.63;;;12.30;;
17790;SDS011;9019;48.132;-1.210;2024-01-30T01:48:00;24.93;;;13.00;;
17790;SDS011;9019;48.132;-1.210;2024-01-30T01:50:27;25.63;;;13.37;;
17790;SDS011;9019;48.132;-1.210;2024-01-30T01:52:54;26.00;;;13.27;;
17790;SDS011;9019;48.132;-1.210;2024-01-30T01:55:23;20.03;;;12.97;;
17790;SDS011;9019;48.132;-1.210;2024-01-30T01:57:53;24.63;;;12.23;;
17790;SDS011;9019;48.132;-1.210;2024-01-30T02:00:20;26.00;;;12.23;;
17790;SDS011;9019;48.132;-1.210;2024-01-30T02:02:47;22.47;;;12.13;;
17790;SDS011;9019;48.132;-1.210;2024-01-30T02:05:15;29.13;;;13.30;;
17790;SDS011;9019;48.132;-1.210;2024-01-30T02:07:42;22.00;;;12.20;;
17790;SDS011;9019;48.132;-1.210;2024-01-30T02:10:10;24.07;;;12.87;;
17790;SDS011;9019;48.132;-1.210;2024-01-30T02:12:39;27.80;;;12.27;;
17790;SDS011;9019;48.132;-1.210;2024-01-30T02:15:06;21.83;;;12.20;;
17790;SDS011;9019;48.132;-1.210;2024-01-30T02:17:33;25.57;;;12.77;;
17790;SDS011;9019;48.132;-1.210;2024-01-30T02:20:01;23.13;;;12.00;;
17790;SDS011;9019;48.132;-1.210;2024-01-30T02:22:31;22.03;;;11.60;;
17790;SDS011;9019;48.132;-1.210;2024-01-30T02:25:00;28.70;;;12.87;;
17790;SDS011;9019;48.132;-1.210;2024-01-30T02:27:27;27.13;;;11.97;;
17790;SDS011;9019;48.132;-1.210;2024-01-30T02:29:55;28.23;;;12.77;;
17790;SDS011;9019;48.132;-1.210;2024-01-30T02:32:22;25.17;;;11.60;;
17790;SDS011;9019;48.132;-1.210;2024-01-30T02:34:49;25.07;;;12.20;;
17790;SDS011;9019;48.132;-1.210;2024-01-30T02:37:16;27.17;;;12.83;;
17790;SDS011;9019;48.132;-1.210;2024-01-30T02:39:45;24.17;;;12.47;;
17790;SDS011;9019;48.132;-1.210;2024-01-30T02:42:12;23.03;;;13.33;;
17790;SDS011;9019;48.132;-1.210;2024-01-30T02:44:39;24.03;;;13.47;;
17790;SDS011;9019;48.132;-1.210;2024-01-30T02:47:11;25.37;;;12.07;;
17790;SDS011;9019;48.132;-1.210;2024-01-30T02:49:38;21.33;;;12.03;;
17790;SDS011;9019;48.132;-1.210;2024-01-30T02:52:05;33.50;;;12.80;;
17790;SDS011;9019;48.132;-1.210;2024-01-30T02:54:32;29.67;;;12.37;;
17790;SDS011;9019;48.132;-1.210;2024-01-30T02:57:01;21.47;;;12.50;;
17790;SDS011;9019;48.132;-1.210;2024-01-30T02:59:28;25.20;;;12.63;;
17790;SDS011;9019;48.132;-1.210;2024-01-30T03:01:58;27.27;;;12.77;;
17790;SDS011;9019;48.132;-1.210;2024-01-30T03:04:25;24.43;;;11.30;;
17790;SDS011;9019;48.132;-1.210;2024-01-30T03:06:52;24.43;;;12.30;;
17790;SDS011;9019;48.132;-1.210;2024-01-30T03:09:19;26.60;;;11.30;;
17790;SDS011;9019;48.132;-1.210;2024-01-30T03:11:46;24.67;;;11.47;;
17790;SDS011;9019;48.132;-1.210;2024-01-30T03:14:15;21.43;;;11.93;;
17790;SDS011;9019;48.132;-1.210;2024-01-30T03:16:42;20.77;;;11.17;;
17790;SDS011;9019;48.132;-1.210;2024-01-30T03:19:09;20.90;;;11.27;;
17790;SDS011;9019;48.132;-1.210;2024-01-30T03:21:36;22.90;;;11.47;;
17790;SDS011;9019;48.132;-1.210;2024-01-30T03:24:04;26.80;;;12.00;;
17790;SDS011;9019;48.132;-1.210;2024-01-30T03:26:31;22.67;;;11.47;;
17790;SDS011;9019;48.132;-1.210;2024-01-30T03:28:58;24.90;;;11.23;;
17790;SDS011;9019;48.132;-1.210;2024-01-30T03:31:27;23.00;;;11.33;;
17790;SDS011;9019;48.132;-1.210;2024-01-30T03:33:54;21.80;;;10.50;;
17790;SDS011;9019;48.132;-1.210;2024-01-30T03:36:21;21.57;;;10.83;;
17790;SDS011;9019;48.132;-1.210;2024-01-30T03:38:49;21.50;;;11.13;;
17790;SDS011;9019;48.132;-1.210;2024-01-30T03:41:16;24.07;;;12.03;;
17790;SDS011;9019;48.132;-1.210;2024-01-30T03:43:43;24.87;;;12.03;;
17790;SDS011;9019;48.132;-1.210;2024-01-30T03:46:11;20.07;;;11.10;;
17790;SDS011;9019;48.132;-1.210;2024-01-30T03:48:40;24.00;;;12.47;;
17790;SDS011;9019;48.132;-1.210;2024-01-30T03:51:07;25.43;;;12.53;;
17790;SDS011;9019;48.132;-1.210;2024-01-30T03:53:39;24.37;;;11.87;;
17790;SDS011;9019;48.132;-1.210;2024-01-30T03:56:06;26.50;;;12.67;;
17790;SDS011;9019;48.132;-1.210;2024-01-30T03:58:34;30.50;;;13.20;;
17790;SDS011;9019;48.132;-1.210;2024-01-30T04:01:01;26.53;;;13.90;;
17790;SDS011;9019;48.132;-1.210;2024-01-30T04:03:28;24.83;;;13.47;;
17790;SDS011;9019;48.132;-1.210;2024-01-30T04:05:57;22.00;;;13.50;;
17790;SDS011;9019;48.132;-1.210;2024-01-30T04:08:24;25.57;;;13.13;;
17790;SDS011;9019;48.132;-1.210;2024-01-30T04:10:51;24.57;;;13.07;;
17790;SDS011;9019;48.132;-1.210;2024-01-30T04:13:18;26.90;;;14.00;;
17790;SDS011;9019;48.132;-1.210;2024-01-30T04:15:46;21.47;;;13.03;;
17790;SDS011;9019;48.132;-1.210;2024-01-30T04:18:13;29.97;;;14.17;;
17790;SDS011;9019;48.132;-1.210;2024-01-30T04:20:40;26.27;;;14.17;;
17790;SDS011;9019;48.132;-1.210;2024-01-30T04:23:08;27.20;;;14.73;;
17790;SDS011;9019;48.132;-1.210;2024-01-30T04:25:36;21.63;;;13.10;;
17790;SDS011;9019;48.132;-1.210;2024-01-30T04:28:03;21.27;;;12.00;;
17790;SDS011;9019;48.132;-1.210;2024-01-30T04:30:30;21.97;;;10.73;;
17790;SDS011;9019;48.132;-1.210;2024-01-30T04:32:57;16.43;;;9.50;;
17790;SDS011;9019;48.132;-1.210;2024-01-30T04:35:24;13.90;;;7.50;;
17790;SDS011;9019;48.132;-1.210;2024-01-30T04:37:52;12.07;;;5.10;;
17790;SDS011;9019;48.132;-1.210;2024-01-30T04:40:21;10.47;;;4.67;;
17790;SDS011;9019;48.132;-1.210;2024-01-30T04:42:48;11.57;;;3.67;;
17790;SDS011;9019;48.132;-1.210;2024-01-30T04:45:15;7.20;;;3.40;;
17790;SDS011;9019;48.132;-1.210;2024-01-30T04:47:42;5.63;;;2.97;;
17790;SDS011;9019;48.132;-1.210;2024-01-30T04:50:09;9.23;;;2.33;;
17790;SDS011;9019;48.132;-1.210;2024-01-30T04:52:36;7.63;;;2.70;;
17790;SDS011;9019;48.132;-1.210;2024-01-30T04:55:04;8.40;;;2.10;;
17790;SDS011;9019;48.132;-1.210;2024-01-30T04:57:33;6.67;;;1.77;;
17790;SDS011;9019;48.132;-1.210;2024-01-30T05:00:00;5.90;;;1.77;;
17790;SDS011;9019;48.132;-1.210;2024-01-30T05:02:27;6.93;;;1.70;;
17790;SDS011;9019;48.132;-1.210;2024-01-30T05:04:54;5.53;;;1.97;;
17790;SDS011;9019;48.132;-1.210;2024-01-30T05:07:21;6.93;;;1.80;;
17790;SDS011;9019;48.132;-1.210;2024-01-30T05:09:48;3.60;;;1.43;;
17790;SDS011;9019;48.132;-1.210;2024-01-30T05:12:15;4.77;;;1.70;;
17790;SDS011;9019;48.132;-1.210;2024-01-30T05:14:44;4.20;;;1.90;;
17790;SDS011;9019;48.132;-1.210;2024-01-30T05:17:11;4.03;;;1.73;;
17790;SDS011;9019;48.132;-1.210;2024-01-30T05:19:39;5.07;;;1.87;;
17790;SDS011;9019;48.132;-1.210;2024-01-30T05:22:06;5.60;;;2.30;;
17790;SDS011;9019;48.132;-1.210;2024-01-30T05:24:33;4.47;;;2.13;;
17790;SDS011;9019;48.132;-1.210;2024-01-30T05:27:00;4.83;;;1.83;;
17790;SDS011;9019;48.132;-1.210;2024-01-30T05:29:27;7.20;;;2.47;;
17790;SDS011;9019;48.132;-1.210;2024-01-30T05:31:56;10.47;;;2.80;;
17790;SDS011;9019;48.132;-1.210;2024-01-30T05:34:23;7.03;;;2.80;;
17790;SDS011;9019;48.132;-1.210;2024-01-30T05:36:50;5.57;;;1.93;;
17790;SDS011;9019;48.132;-1.210;2024-01-30T05:39:18;6.03;;;1.93;;
17790;SDS011;9019;48.132;-1.210;2024-01-30T05:41:45;7.17;;;1.77;;
17790;SDS011;9019;48.132;-1.210;2024-01-30T05:44:12;5.57;;;1.73;;
17790;SDS011;9019;48.132;-1.210;2024-01-30T05:46:39;3.37;;;1.57;;
17790;SDS011;9019;48.132;-1.210;2024-01-30T05:49:08;5.03;;;1.60;;
17790;SDS011;9019;48.132;-1.210;2024-01-30T05:51:35;5.67;;;1.70;;
17790;SDS011;9019;48.132;-1.210;2024-01-30T05:54:02;5.17;;;1.60;;
17790;SDS011;9019;48.132;-1.210;2024-01-30T05:56:29;4.07;;;1.40;;
17790;SDS011;9019;48.132;-1.210;2024-01-30T05:58:56;3.47;;;1.27;;
17790;SDS011;9019;48.132;-1.210;2024-01-30T06:01:23;4.20;;;1.57;;
17790;SDS011;9019;48.132;-1.210;2024-01-30T06:03:51;5.03;;;1.63;;
17790;SDS011;9019;48.132;-1.210;2024-01-30T06:06:19;3.80;;;1.50;;
17790;SDS011;9019;48.132;-1.210;2024-01-30T06:08:46;6.10;;;1.83;;
17790;SDS011;9019;48.132;-1.210;2024-01-30T06:11:13;5.10;;;1.60;;
17790;SDS011;9019;48.132;-1.210;2024-01-30T06:13:41;4.73;;;1.77;;
17790;SDS011;9019;48.132;-1.210;2024-01-30T06:16:09;5.47;;;2.10;;
17790;SDS011;9019;48.132;-1.210;2024-01-30T06:18:37;7.53;;;2.60;;
17790;SDS011;9019;48.132;-1.210;2024-01-30T06:21:04;8.73;;;3.23;;
17790;SDS011;9019;48.132;-1.210;2024-01-30T06:23:33;4.83;;;2.07;;
17790;SDS011;9019;48.132;-1.210;2024-01-30T06:26:00;5.50;;;2.17;;
17790;SDS011;9019;48.132;-1.210;2024-01-30T06:28:27;3.70;;;1.20;;
17790;SDS011;9019;48.132;-1.210;2024-01-30T06:30:55;4.93;;;1.40;;
17790;SDS011;9019;48.132;-1.210;2024-01-30T06:33:22;5.30;;;1.47;;
17790;SDS011;9019;48.132;-1.210;2024-01-30T06:35:49;2.90;;;1.10;;
17790;SDS011;9019;48.132;-1.210;2024-01-30T06:38:17;3.67;;;1.30;;
17790;SDS011;9019;48.132;-1.210;2024-01-30T06:40:45;2.47;;;1.30;;
17790;SDS011;9019;48.132;-1.210;2024-01-30T06:43:12;3.20;;;1.07;;
17790;SDS011;9019;48.132;-1.210;2024-01-30T06:45:40;2.33;;;1.10;;
17790;SDS011;9019;48.132;-1.210;2024-01-30T06:48:08;2.50;;;1.13;;
17790;SDS011;9019;48.132;-1.210;2024-01-30T06:50:35;2.97;;;1.00;;
17790;SDS011;9019;48.132;-1.210;2024-01-30T06:53:02;3.40;;;1.10;;
17790;SDS011;9019;48.132;-1.210;2024-01-30T06:55:30;2.37;;;1.10;;
17790;SDS011;9019;48.132;-1.210;2024-01-30T06:57:58;1.97;;;1.00;;
17790;SDS011;9019;48.132;-1.210;2024-01-30T07:00:26;1.50;;;1.10;;
17790;SDS011;9019;48.132;-1.210;2024-01-30T07:02:53;3.00;;;1.40;;
17790;SDS011;9019;48.132;-1.210;2024-01-30T07:05:20;4.07;;;1.30;;
17790;SDS011;9019;48.132;-1.210;2024-01-30T07:07:48;4.93;;;1.70;;
17790;SDS011;9019;48.132;-1.210;2024-01-30T07:10:16;2.10;;;1.40;;
17790;SDS011;9019;48.132;-1.210;2024-01-30T07:12:43;3.20;;;1.23;;
17790;SDS011;9019;48.132;-1.210;2024-01-30T07:15:12;5.50;;;1.40;;
17790;SDS011;9019;48.132;-1.210;2024-01-30T07:17:41;2.57;;;1.00;;
17790;SDS011;9019;48.132;-1.210;2024-01-30T07:20:09;2.27;;;1.10;;
17790;SDS011;9019;48.132;-1.210;2024-01-30T07:22:36;1.30;;;1.00;;
17790;SDS011;9019;48.132;-1.210;2024-01-30T07:25:03;2.27;;;1.37;;
17790;SDS011;9019;48.132;-1.210;2024-01-30T07:27:31;1.97;;;1.00;;
17790;SDS011;9019;48.132;-1.210;2024-01-30T07:29:58;1.70;;;1.03;;
17790;SDS011;9019;48.132;-1.210;2024-01-30T07:32:26;4.27;;;1.20;;
17790;SDS011;9019;48.132;-1.210;2024-01-30T07:34:53;3.77;;;1.20;;
17790;SDS011;9019;48.132;-1.210;2024-01-30T07:37:21;2.80;;;0.90;;
17790;SDS011;9019;48.132;-1.210;2024-01-30T07:39:48;2.40;;;0.90;;
17790;SDS011;9019;48.132;-1.210;2024-01-30T07:42:15;1.53;;;0.70;;
17790;SDS011;9019;48.132;-1.210;2024-01-30T07:44:42;2.57;;;0.80;;
17790;SDS011;9019;48.132;-1.210;2024-01-30T07:47:09;1.57;;;0.77;;
17790;SDS011;9019;48.132;-1.210;2024-01-30T07:49:41;1.70;;;0.80;;
17790;SDS011;9019;48.132;-1.210;2024-01-30T07:52:08;2.40;;;0.97;;
17790;SDS011;9019;48.132;-1.210;2024-01-30T07:54:47;2.67;;;1.70;;
17790;SDS011;9019;48.132;-1.210;2024-01-30T07:57:15;3.03;;;2.13;;
17790;SDS011;9019;48.132;-1.210;2024-01-30T07:59:42;6.37;;;2.40;;
17790;SDS011;9019;48.132;-1.210;2024-01-30T08:02:10;3.27;;;2.37;;
17790;SDS011;9019;48.132;-1.210;2024-01-30T08:04:37;4.07;;;2.50;;
17790;SDS011;9019;48.132;-1.210;2024-01-30T08:07:05;3.20;;;2.90;;
17790;SDS011;9019;48.132;-1.210;2024-01-30T08:09:33;3.23;;;2.50;;
17790;SDS011;9019;48.132;-1.210;2024-01-30T08:12:00;3.87;;;2.00;;
17790;SDS011;9019;48.132;-1.210;2024-01-30T08:14:27;2.37;;;1.87;;
17790;SDS011;9019;48.132;-1.210;2024-01-30T08:16:54;2.77;;;1.60;;
17790;SDS011;9019;48.132;-1.210;2024-01-30T08:19:21;3.60;;;1.50;;
17790;SDS011;9019;48.132;-1.210;2024-01-30T08:21:48;2.00;;;1.60;;
17790;SDS011;9019;48.132;-1.210;2024-01-30T08:24:17;3.33;;;1.70;;
17790;SDS011;9019;48.132;-1.210;2024-01-30T08:26:44;3.63;;;1.53;;
17790;SDS011;9019;48.132;-1.210;2024-01-30T08:29:11;4.27;;;1.57;;
17790;SDS011;9019;48.132;-1.210;2024-01-30T08:31:39;3.73;;;1.90;;
17790;SDS011;9019;48.132;-1.210;2024-01-30T08:34:06;2.50;;;1.40;;
17790;SDS011;9019;48.132;-1.210;2024-01-30T08:36:33;3.10;;;1.50;;
17790;SDS011;9019;48.132;-1.210;2024-01-30T08:39:00;2.60;;;1.60;;
17790;SDS011;9019;48.132;-1.210;2024-01-30T08:41:29;4.23;;;1.67;;
17790;SDS011;9019;48.132;-1.210;2024-01-30T08:43:56;4.07;;;1.80;;
17790;SDS011;9019;48.132;-1.210;2024-01-30T08:46:23;2.57;;;2.17;;
17790;SDS011;9019;48.132;-1.210;2024-01-30T08:48:50;3.87;;;2.03;;
17790;SDS011;9019;48.132;-1.210;2024-01-30T08:51:18;1.80;;;1.15;;
17790;SDS011;9019;48.132;-1.210;2024-01-30T08:53:45;2.60;;;1.73;;
17790;SDS011;9019;48.132;-1.210;2024-01-30T08:56:12;3.85;;;1.77;;
17790;SDS011;9019;48.132;-1.210;2024-01-30T08:58:42;4.13;;;2.30;;
17790;SDS011;9019;48.132;-1.210;2024-01-30T09:01:09;3.35;;;1.90;;
17790;SDS011;9019;48.132;-1.210;2024-01-30T09:03:37;2.20;;;1.63;;
17790;SDS011;9019;48.132;-1.210;2024-01-30T09:06:08;3.00;;;1.60;;
17790;SDS011;9019;48.132;-1.210;2024-01-30T09:08:35;3.83;;;1.90;;
17790;SDS011;9019;48.132;-1.210;2024-01-30T09:11:07;3.67;;;1.47;;
17790;SDS011;9019;48.132;-1.210;2024-01-30T09:13:35;2.17;;;1.23;;
17790;SDS011;9019;48.132;-1.210;2024-01-30T09:16:04;3.47;;;1.43;;
17790;SDS011;9019;48.132;-1.210;2024-01-30T09:18:31;1.70;;;1.43;;
17790;SDS011;9019;48.132;-1.210;2024-01-30T09:20:58;2.77;;;1.33;;
17790;SDS011;9019;48.132;-1.210;2024-01-30T09:23:26;2.37;;;1.90;;
17790;SDS011;9019;48.132;-1.210;2024-01-30T09:25:54;2.88;;;1.67;;
17790;SDS011;9019;48.132;-1.210;2024-01-30T09:28:21;3.20;;;2.30;;
17790;SDS011;9019;48.132;-1.210;2024-01-30T09:30:48;2.80;;;2.20;;
17790;SDS011;9019;48.132;-1.210;2024-01-30T09:33:17;2.97;;;2.38;;
17790;SDS011;9019;48.132;-1.210;2024-01-30T09:35:45;2.35;;;1.50;;
17790;SDS011;9019;48.132;-1.210;2024-01-30T09:38:12;1.40;;;1.10;;
17790;SDS011;9019;48.132;-1.210;2024-01-30T09:40:39;1.30;;;1.20;;
17790;SDS011;9019;48.132;-1.210;2024-01-30T09:43:07;1.90;;;1.10;;
17790;SDS011;9019;48.132;-1.210;2024-01-30T09:45:34;1.77;;;1.27;;
17790;SDS011;9019;48.132;-1.210;2024-01-30T09:48:02;2.05;;;0.88;;
17790;SDS011;9019;48.132;-1.210;2024-01-30T09:50:30;2.33;;;1.08;;
17790;SDS011;9019;48.132;-1.210;2024-01-30T09:52:58;0.90;;;0.70;;
17790;SDS011;9019;48.132;-1.210;2024-01-30T09:55:26;1.20;;;0.70;;
17790;SDS011;9019;48.132;-1.210;2024-01-30T09:57:53;0.93;;;0.63;;
17790;SDS011;9019;48.132;-1.210;2024-01-30T10:00:20;1.42;;;0.77;;
17790;SDS011;9019;48.132;-1.210;2024-01-30T10:02:52;1.58;;;0.80;;
17790;SDS011;9019;48.132;-1.210;2024-01-30T10:05:19;1.65;;;0.80;;
17790;SDS011;9019;48.132;-1.210;2024-01-30T10:07:54;1.25;;;0.90;;
17790;SDS011;9019;48.132;-1.210;2024-01-30T10:10:21;1.10;;;0.70;;
17790;SDS011;9019;48.132;-1.210;2024-01-30T10:12:49;1.33;;;0.77;;
17790;SDS011;9019;48.132;-1.210;2024-01-30T10:15:17;0.70;;;0.50;;
17790;SDS011;9019;48.132;-1.210;2024-01-30T10:17:44;1.45;;;0.65;;
17790;SDS011;9019;48.132;-1.210;2024-01-30T10:20:12;1.40;;;0.70;;
17790;SDS011;9019;48.132;-1.210;2024-01-30T10:22:39;1.48;;;0.70;;
17790;SDS011;9019;48.132;-1.210;2024-01-30T10:25:10;1.30;;;0.60;;
17790;SDS011;9019;48.132;-1.210;2024-01-30T10:27:39;0.80;;;0.70;;
17790;SDS011;9019;48.132;-1.210;2024-01-30T10:30:06;1.25;;;0.60;;
17790;SDS011;9019;48.132;-1.210;2024-01-30T10:32:34;1.17;;;0.60;;
17790;SDS011;9019;48.132;-1.210;2024-01-30T10:35:01;0.80;;;0.60;;
17790;SDS011;9019;48.132;-1.210;2024-01-30T10:37:29;1.10;;;0.70;;
17790;SDS011;9019;48.132;-1.210;2024-01-30T10:39:58;1.02;;;0.60;;
17790;SDS011;9019;48.132;-1.210;2024-01-30T10:42:31;1.17;;;0.57;;
17790;SDS011;9019;48.132;-1.210;2024-01-30T10:45:00;0.57;;;0.40;;
17790;SDS011;9019;48.132;-1.210;2024-01-30T10:47:29;1.20;;;0.60;;
17790;SDS011;9019;48.132;-1.210;2024-01-30T10:49:57;2.15;;;0.55;;
17790;SDS011;9019;48.132;-1.210;2024-01-30T10:52:24;1.63;;;0.70;;
17790;SDS011;9019;48.132;-1.210;2024-01-30T10:54:51;1.80;;;0.60;;
17790;SDS011;9019;48.132;-1.210;2024-01-30T10:57:19;0.60;;;0.60;;
17790;SDS011;9019;48.132;-1.210;2024-01-30T10:59:47;1.65;;;0.55;;
17790;SDS011;9019;48.132;-1.210;2024-01-30T11:02:15;2.25;;;0.50;;
17790;SDS011;9019;48.132;-1.210;2024-01-30T11:04:42;0.40;;;0.30;;
17790;SDS011;9019;48.132;-1.210;2024-01-30T11:07:16;1.42;;;0.60;;
17790;SDS011;9019;48.132;-1.210;2024-01-30T11:09:49;1.50;;;0.93;;
17790;SDS011;9019;48.132;-1.210;2024-01-30T11:12:18;1.63;;;0.70;;
17790;SDS011;9019;48.132;-1.210;2024-01-30T11:14:49;1.15;;;0.70;;
17790;SDS011;9019;48.132;-1.210;2024-01-30T11:17:17;2.10;;;0.52;;
17790;SDS011;9019;48.132;-1.210;2024-01-30T11:19:44;0.60;;;0.50;;
17790;SDS011;9019;48.132;-1.210;2024-01-30T11:22:13;2.83;;;0.73;;
17790;SDS011;9019;48.132;-1.210;2024-01-30T11:24:40;1.08;;;0.43;;
17790;SDS011;9019;48.132;-1.210;2024-01-30T11:27:09;1.27;;;0.40;;
17790;SDS011;9019;48.132;-1.210;2024-01-30T11:29:36;2.22;;;0.55;;
17790;SDS011;9019;48.132;-1.210;2024-01-30T11:32:05;0.75;;;0.52;;
17790;SDS011;9019;48.132;-1.210;2024-01-30T11:34:32;1.40;;;0.60;;
17790;SDS011;9019;48.132;-1.210;2024-01-30T11:37:02;1.55;;;0.60;;
17790;SDS011;9019;48.132;-1.210;2024-01-30T11:39:30;1.35;;;0.60;;
17790;SDS011;9019;48.132;-1.210;2024-01-30T11:41:57;0.80;;;0.70;;
17790;SDS011;9019;48.132;-1.210;2024-01-30T11:44:25;1.85;;;0.60;;
17790;SDS011;9019;48.132;-1.210;2024-01-30T11:46:52;1.65;;;0.63;;
17790;SDS011;9019;48.132;-1.210;2024-01-30T11:49:21;1.63;;;0.40;;
17790;SDS011;9019;48.132;-1.210;2024-01-30T11:51:48;1.50;;;0.50;;
17790;SDS011;9019;48.132;-1.210;2024-01-30T11:54:15;2.38;;;0.55;;
17790;SDS011;9019;48.132;-1.210;2024-01-30T11:56:43;1.08;;;0.50;;
17790;SDS011;9019;48.132;-1.210;2024-01-30T11:59:10;1.00;;;0.65;;
17790;SDS011;9019;48.132;-1.210;2024-01-30T12:01:37;1.08;;;0.52;;
17790;SDS011;9019;48.132;-1.210;2024-01-30T12:04:04;2.00;;;0.68;;
17790;SDS011;9019;48.132;-1.210;2024-01-30T12:06:35;1.40;;;0.60;;
17790;SDS011;9019;48.132;-1.210;2024-01-30T12:09:02;1.55;;;0.70;;
17790;SDS011;9019;48.132;-1.210;2024-01-30T12:11:30;2.90;;;0.70;;
17790;SDS011;9019;48.132;-1.210;2024-01-30T12:13:57;3.10;;;0.63;;
17790;SDS011;9019;48.132;-1.210;2024-01-30T12:16:25;1.85;;;0.55;;
17790;SDS011;9019;48.132;-1.210;2024-01-30T12:18:59;1.48;;;0.45;;
17790;SDS011;9019;48.132;-1.210;2024-01-30T12:21:27;1.20;;;0.30;;
17790;SDS011;9019;48.132;-1.210;2024-01-30T12:23:55;1.65;;;0.40;;
17790;SDS011;9019;48.132;-1.210;2024-01-30T12:26:23;0.73;;;0.20;;
17790;SDS011;9019;48.132;-1.210;2024-01-30T12:28:53;1.45;;;0.35;;
17790;SDS011;9019;48.132;-1.210;2024-01-30T12:31:25;2.28;;;0.20;;
17790;SDS011;9019;48.132;-1.210;2024-01-30T12:33:52;1.02;;;0.35;;
17790;SDS011;9019;48.132;-1.210;2024-01-30T12:36:20;0.60;;;0.20;;
17790;SDS011;9019;48.132;-1.210;2024-01-30T12:38:48;2.75;;;0.40;;
17790;SDS011;9019;48.132;-1.210;2024-01-30T12:41:16;3.47;;;0.47;;
17790;SDS011;9019;48.132;-1.210;2024-01-30T12:43:44;7.50;;;0.82;;
17790;SDS011;9019;48.132;-1.210;2024-01-30T12:46:12;1.15;;;0.13;;
17790;SDS011;9019;48.132;-1.210;2024-01-30T12:48:39;0.98;;;0.20;;
17790;SDS011;9019;48.132;-1.210;2024-01-30T12:51:07;2.28;;;0.38;;
17790;SDS011;9019;48.132;-1.210;2024-01-30T12:53:34;8.00;;;0.80;;
17790;SDS011;9019;48.132;-1.210;2024-01-30T12:56:01;2.25;;;0.50;;
17790;SDS011;9019;48.132;-1.210;2024-01-30T12:58:30;2.08;;;0.73;;
17790;SDS011;9019;48.132;-1.210;2024-01-30T13:00:57;0.88;;;0.50;;
17790;SDS011;9019;48.132;-1.210;2024-01-30T13:03:24;1.08;;;0.52;;
17790;SDS011;9019;48.132;-1.210;2024-01-30T13:05:51;1.30;;;0.40;;
17790;SDS011;9019;48.132;-1.210;2024-01-30T13:08:18;0.60;;;0.30;;
17790;SDS011;9019;48.132;-1.210;2024-01-30T13:10:45;18.42;;;1.92;;
17790;SDS011;9019;48.132;-1.210;2024-01-30T13:13:13;2.10;;;0.50;;
17790;SDS011;9019;48.132;-1.210;2024-01-30T13:15:41;1.73;;;0.50;;
17790;SDS011;9019;48.132;-1.210;2024-01-30T13:18:08;2.75;;;0.60;;
17790;SDS011;9019;48.132;-1.210;2024-01-30T13:20:36;3.58;;;0.52;;
17790;SDS011;9019;48.132;-1.210;2024-01-30T13:23:03;6.47;;;0.57;;
17790;SDS011;9019;48.132;-1.210;2024-01-30T13:25:30;1.20;;;0.50;;
17790;SDS011;9019;48.132;-1.210;2024-01-30T13:27:57;4.47;;;0.60;;
17790;SDS011;9019;48.132;-1.210;2024-01-30T13:30:24;1.70;;;0.43;;
17790;SDS011;9019;48.132;-1.210;2024-01-30T13:32:53;1.35;;;0.50;;
17790;SDS011;9019;48.132;-1.210;2024-01-30T13:35:20;1.42;;;0.60;;
17790;SDS011;9019;48.132;-1.210;2024-01-30T13:37:47;1.45;;;0.57;;
17790;SDS011;9019;48.132;-1.210;2024-01-30T13:40:15;2.35;;;0.60;;
17790;SDS011;9019;48.132;-1.210;2024-01-30T13:42:42;0.98;;;0.50;;
17790;SDS011;9019;48.132;-1.210;2024-01-30T13:45:09;4.03;;;0.60;;
17790;SDS011;9019;48.132;-1.210;2024-01-30T13:47:37;1.13;;;0.50;;
17790;SDS011;9019;48.132;-1.210;2024-01-30T13:50:05;2.30;;;0.70;;
17790;SDS011;9019;48.132;-1.210;2024-01-30T13:52:33;0.70;;;0.52;;
17790;SDS011;9019;48.132;-1.210;2024-01-30T13:55:00;9.95;;;0.90;;
17790;SDS011;9019;48.132;-1.210;2024-01-30T13:57:27;1.83;;;0.45;;
17790;SDS011;9019;48.132;-1.210;2024-01-30T13:59:58;1.58;;;0.68;;
17790;SDS011;9019;48.132;-1.210;2024-01-30T14:02:25;1.58;;;0.57;;
17790;SDS011;9019;48.132;-1.210;2024-01-30T14:04:52;1.65;;;0.80;;
17790;SDS011;9019;48.132;-1.210;2024-01-30T14:07:21;2.65;;;0.90;;
17790;SDS011;9019;48.132;-1.210;2024-01-30T14:09:48;2.40;;;0.90;;
17790;SDS011;9019;48.132;-1.210;2024-01-30T14:12:15;1.42;;;0.60;;
17790;SDS011;9019;48.132;-1.210;2024-01-30T14:14:42;3.28;;;0.60;;
17790;SDS011;9019;48.132;-1.210;2024-01-30T14:17:10;1.63;;;0.60;;
17790;SDS011;9019;48.132;-1.210;2024-01-30T14:19:37;1.80;;;0.70;;
17790;SDS011;9019;48.132;-1.210;2024-01-30T14:22:04;2.03;;;0.93;;
17790;SDS011;9019;48.132;-1.210;2024-01-30T14:24:33;1.58;;;0.75;;
17790;SDS011;9019;48.132;-1.210;2024-01-30T14:27:02;1.75;;;0.70;;
17790;SDS011;9019;48.132;-1.210;2024-01-30T14:29:29;1.55;;;0.85;;
17790;SDS011;9019;48.132;-1.210;2024-01-30T14:31:56;1.75;;;0.57;;
17790;SDS011;9019;48.132;-1.210;2024-01-30T14:34:23;2.15;;;0.60;;
17790;SDS011;9019;48.132;-1.210;2024-01-30T14:36:51;1.95;;;0.80;;
17790;SDS011;9019;48.132;-1.210;2024-01-30T14:39:18;1.85;;;0.80;;
17790;SDS011;9019;48.132;-1.210;2024-01-30T14:41:46;1.70;;;0.80;;